Buoy 46930

sailwx.info

Track history (hours):
 
Tides and Currents Weather Stations Pressure Air Temp Water Temp Dewpoint Dewpoint Depression Visibility Wind Speed Wind Dir Waves Ship Positions

Drifting buoy 46930

Last reported at 2017-May-26 23:00 UTC. Time now 2017-May-27 06:17 UTC.
Position N 18°02' E 162°04'.

Date/timePositionNaut miles runAvg speedWind from/ knotsBaromVisibWave heightAir tempDewpointWater temp
2017-May-26 23:00N 18°02' E 162°04'0 0.0
2017-May-26 22:00N 18°02' E 162°04'1 1.3
2017-May-26 21:00N 18°03' E 162°05'0 0.0
2017-May-26 20:00N 18°03' E 162°05'1 0.6
2017-May-26 19:00N 18°03' E 162°05'1 1.3
2017-May-26 18:00N 18°04' E 162°07'4 0.5
2017-May-26 10:00N 18°05' E 162°11'4 1.3
2017-May-26 07:00N 18°05' E 162°15'5 0.6
2017-May-25 22:00N 18°08' E 162°20'2 0.9
2017-May-25 20:00N 18°08' E 162°22'0 0.0
2017-May-25 19:00N 18°08' E 162°22'4 0.4
2017-May-25 10:00N 18°09' E 162°26'1 0.6
2017-May-25 09:00N 18°09' E 162°26'1 0.6
2017-May-25 07:00N 18°08' E 162°28'5 0.7
2017-May-24 23:00N 18°07' E 162°33'1 0.4
2017-May-24 20:00N 18°07' E 162°34'1 1.1
2017-May-24 19:00N 18°07' E 162°35'0 0.0
2017-May-24 18:00N 18°07' E 162°35'1 1.1
2017-May-24 17:00N 18°07' E 162°37'3 0.5
2017-May-24 11:00N 18°09' E 162°39'1 0.3
2017-May-24 08:00N 18°10' E 162°40'1 0.8
2017-May-24 07:00N 18°09' E 162°40'0 0.0
2017-May-24 05:00N 18°09' E 162°40'1 0.3
2017-May-24 01:00N 18°08' E 162°41'1 0.3
2017-May-23 23:00N 18°08' E 162°41'1 0.3
2017-May-23 20:00N 18°07' E 162°42'0 0.0
2017-May-23 19:00N 18°07' E 162°42'1 0.8
2017-May-23 18:00N 18°07' E 162°43'1 0.3
2017-May-23 16:00N 18°06' E 162°43'5 0.7
2017-May-23 09:00N 18°03' E 162°46'1 0.6
2017-May-23 08:00N 18°04' E 162°46'0 0.0
2017-May-23 07:00N 18°04' E 162°46'1 0.6
2017-May-23 06:00N 18°03' E 162°46'2 1.7
2017-May-23 05:00N 18°02' E 162°47'1 0.6
2017-May-23 03:00N 18°01' E 162°49'2 0.3
2017-May-22 22:00N 18°00' E 162°50'1 0.8
2017-May-22 21:00N 17°59' E 162°50'0 0.0
2017-May-22 20:00N 17°59' E 162°50'1 0.6
2017-May-22 19:00N 17°59' E 162°50'1 0.6
2017-May-22 18:00N 17°59' E 162°51'3 0.5
2017-May-22 11:00N 17°56' E 162°53'0 0.0
2017-May-22 10:00N 17°56' E 162°53'1 1.3
2017-May-22 09:00N 17°55' E 162°54'0 0.0
2017-May-22 08:00N 17°55' E 162°54'1 0.6
2017-May-22 07:00N 17°55' E 162°54'1 0.6
2017-May-22 06:00N 17°55' E 162°55'1 1.3
2017-May-22 05:00N 17°54' E 162°56'4 0.5
2017-May-21 22:00N 17°51' E 162°58'2 0.8
2017-May-21 20:00N 17°50' E 162°59'1 0.8
2017-May-21 19:00N 17°49' E 163°00'5 0.5
2017-May-21 10:00N 17°47' E 163°04'2 0.8
2017-May-21 07:00N 17°45' E 163°06'0 0.0
2017-May-21 06:00N 17°45' E 163°06'2 1.0
2017-May-21 04:00N 17°44' E 163°08'3 0.4
2017-May-20 21:00N 17°41' E 163°10'1 0.6
2017-May-20 20:00N 17°41' E 163°10'2 1.0
2017-May-20 18:00N 17°40' E 163°11'7 0.8
2017-May-20 10:00N 17°35' E 163°17'1 0.6
2017-May-20 09:00N 17°35' E 163°17'1 0.8
2017-May-20 08:00N 17°35' E 163°18'1 0.6
2017-May-20 07:00N 17°35' E 163°19'1 1.1
2017-May-20 06:00N 17°35' E 163°20'1 0.6
2017-May-20 05:00N 17°34' E 163°20'3 0.5
2017-May-19 23:00N 17°33' E 163°23'1 0.6
2017-May-19 21:00N 17°32' E 163°24'3 0.8
2017-May-19 17:00N 17°30' E 163°26'3 0.6
2017-May-19 11:00N 17°27' E 163°28'2 0.7
2017-May-19 08:00N 17°26' E 163°30'2 1.7
2017-May-19 07:00N 17°25' E 163°31'1 1.3
2017-May-19 06:00N 17°24' E 163°32'2 1.2
2017-May-19 04:00N 17°23' E 163°35'4 0.9
2017-May-18 23:00N 17°22' E 163°39'1 0.4
2017-May-18 20:00N 17°22' E 163°40'1 1.3
2017-May-18 19:00N 17°21' E 163°41'5 0.6
2017-May-18 10:00N 17°19' E 163°47'0 0.0
2017-May-18 09:00N 17°19' E 163°47'2 1.7
2017-May-18 08:00N 17°19' E 163°49'0 0.0
2017-May-18 06:00N 17°19' E 163°49'6 0.7
2017-May-17 22:00N 17°19' E 163°55'1 1.3
2017-May-17 21:00N 17°19' E 163°56'2 0.6
2017-May-17 18:00N 17°19' E 163°58'1 1.1
2017-May-17 17:00N 17°19' E 163°59'5 0.7
2017-May-17 10:00N 17°20' E 164°04'2 0.9
2017-May-17 08:00N 17°20' E 164°05'1 0.6
2017-May-17 07:00N 17°20' E 164°06'3 1.4
2017-May-17 05:00N 17°20' E 164°09'  
Track history (hours):
 
Tides and Currents Weather Stations Pressure Air Temp Water Temp Dewpoint Dewpoint Depression Visibility Wind Speed Wind Dir Waves Ship Positions

Drifting buoy 46930

Last reported at 2017-May-26 23:00 UTC. Time now 2017-May-27 06:17 UTC.
Position N 18°02' E 162°04'.

Date/timePositionNaut miles runAvg speedWind from/ knotsBaromVisibWave heightAir tempDewpointWater temp
2017-May-26 23:00N 18°02' E 162°04'0 0.0
2017-May-26 22:00N 18°02' E 162°04'1 1.3
2017-May-26 21:00N 18°03' E 162°05'0 0.0
2017-May-26 20:00N 18°03' E 162°05'1 0.6
2017-May-26 19:00N 18°03' E 162°05'1 1.3
2017-May-26 18:00N 18°04' E 162°07'4 0.5
2017-May-26 10:00N 18°05' E 162°11'4 1.3
2017-May-26 07:00N 18°05' E 162°15'5 0.6
2017-May-25 22:00N 18°08' E 162°20'2 0.9
2017-May-25 20:00N 18°08' E 162°22'0 0.0
2017-May-25 19:00N 18°08' E 162°22'4 0.4
2017-May-25 10:00N 18°09' E 162°26'1 0.6
2017-May-25 09:00N 18°09' E 162°26'1 0.6
2017-May-25 07:00N 18°08' E 162°28'5 0.7
2017-May-24 23:00N 18°07' E 162°33'1 0.4
2017-May-24 20:00N 18°07' E 162°34'1 1.1
2017-May-24 19:00N 18°07' E 162°35'0 0.0
2017-May-24 18:00N 18°07' E 162°35'1 1.1
2017-May-24 17:00N 18°07' E 162°37'3 0.5
2017-May-24 11:00N 18°09' E 162°39'1 0.3
2017-May-24 08:00N 18°10' E 162°40'1 0.8
2017-May-24 07:00N 18°09' E 162°40'0 0.0
2017-May-24 05:00N 18°09' E 162°40'1 0.3
2017-May-24 01:00N 18°08' E 162°41'1 0.3
2017-May-23 23:00N 18°08' E 162°41'1 0.3
2017-May-23 20:00N 18°07' E 162°42'0 0.0
2017-May-23 19:00N 18°07' E 162°42'1 0.8
2017-May-23 18:00N 18°07' E 162°43'1 0.3
2017-May-23 16:00N 18°06' E 162°43'5 0.7
2017-May-23 09:00N 18°03' E 162°46'1 0.6
2017-May-23 08:00N 18°04' E 162°46'0 0.0
2017-May-23 07:00N 18°04' E 162°46'1 0.6
2017-May-23 06:00N 18°03' E 162°46'2 1.7
2017-May-23 05:00N 18°02' E 162°47'1 0.6
2017-May-23 03:00N 18°01' E 162°49'2 0.3
2017-May-22 22:00N 18°00' E 162°50'1 0.8
2017-May-22 21:00N 17°59' E 162°50'0 0.0
2017-May-22 20:00N 17°59' E 162°50'1 0.6
2017-May-22 19:00N 17°59' E 162°50'1 0.6
2017-May-22 18:00N 17°59' E 162°51'3 0.5
2017-May-22 11:00N 17°56' E 162°53'0 0.0
2017-May-22 10:00N 17°56' E 162°53'1 1.3
2017-May-22 09:00N 17°55' E 162°54'0 0.0
2017-May-22 08:00N 17°55' E 162°54'1 0.6
2017-May-22 07:00N 17°55' E 162°54'1 0.6
2017-May-22 06:00N 17°55' E 162°55'1 1.3
2017-May-22 05:00N 17°54' E 162°56'4 0.5
2017-May-21 22:00N 17°51' E 162°58'2 0.8
2017-May-21 20:00N 17°50' E 162°59'1 0.8
2017-May-21 19:00N 17°49' E 163°00'5 0.5
2017-May-21 10:00N 17°47' E 163°04'2 0.8
2017-May-21 07:00N 17°45' E 163°06'0 0.0
2017-May-21 06:00N 17°45' E 163°06'2 1.0
2017-May-21 04:00N 17°44' E 163°08'3 0.4
2017-May-20 21:00N 17°41' E 163°10'1 0.6
2017-May-20 20:00N 17°41' E 163°10'2 1.0
2017-May-20 18:00N 17°40' E 163°11'7 0.8
2017-May-20 10:00N 17°35' E 163°17'1 0.6
2017-May-20 09:00N 17°35' E 163°17'1 0.8
2017-May-20 08:00N 17°35' E 163°18'1 0.6
2017-May-20 07:00N 17°35' E 163°19'1 1.1
2017-May-20 06:00N 17°35' E 163°20'1 0.6
2017-May-20 05:00N 17°34' E 163°20'3 0.5
2017-May-19 23:00N 17°33' E 163°23'1 0.6
2017-May-19 21:00N 17°32' E 163°24'3 0.8
2017-May-19 17:00N 17°30' E 163°26'3 0.6
2017-May-19 11:00N 17°27' E 163°28'2 0.7
2017-May-19 08:00N 17°26' E 163°30'2 1.7
2017-May-19 07:00N 17°25' E 163°31'1 1.3
2017-May-19 06:00N 17°24' E 163°32'2 1.2
2017-May-19 04:00N 17°23' E 163°35'4 0.9
2017-May-18 23:00N 17°22' E 163°39'1 0.4
2017-May-18 20:00N 17°22' E 163°40'1 1.3
2017-May-18 19:00N 17°21' E 163°41'5 0.6
2017-May-18 10:00N 17°19' E 163°47'0 0.0
2017-May-18 09:00N 17°19' E 163°47'2 1.7
2017-May-18 08:00N 17°19' E 163°49'0 0.0
2017-May-18 06:00N 17°19' E 163°49'6 0.7
2017-May-17 22:00N 17°19' E 163°55'1 1.3
2017-May-17 21:00N 17°19' E 163°56'2 0.6
2017-May-17 18:00N 17°19' E 163°58'1 1.1
2017-May-17 17:00N 17°19' E 163°59'5 0.7
2017-May-17 10:00N 17°20' E 164°04'2 0.9
2017-May-17 08:00N 17°20' E 164°05'1 0.6
2017-May-17 07:00N 17°20' E 164°06'3 1.4
2017-May-17 05:00N 17°20' E 164°09'  

Dump ship's entire track history